sensor_id;sensor_type;location;lat;lon;timestamp;P1;durP1;ratioP1;P2;durP2;ratioP2
3193;SDS011;1608;50.860;13.466;2022-09-21T00:01:10;22.60;;;11.77;;
3193;SDS011;1608;50.860;13.466;2022-09-21T00:03:38;26.33;;;11.40;;
3193;SDS011;1608;50.860;13.466;2022-09-21T00:06:06;20.23;;;10.93;;
3193;SDS011;1608;50.860;13.466;2022-09-21T00:08:34;16.43;;;11.70;;
3193;SDS011;1608;50.860;13.466;2022-09-21T00:11:03;16.33;;;10.00;;
3193;SDS011;1608;50.860;13.466;2022-09-21T00:13:30;20.03;;;10.80;;
3193;SDS011;1608;50.860;13.466;2022-09-21T00:15:57;14.07;;;9.80;;
3193;SDS011;1608;50.860;13.466;2022-09-21T00:18:24;12.37;;;9.63;;
3193;SDS011;1608;50.860;13.466;2022-09-21T00:20:51;21.93;;;10.97;;
3193;SDS011;1608;50.860;13.466;2022-09-21T00:23:18;16.00;;;9.70;;
3193;SDS011;1608;50.860;13.466;2022-09-21T00:25:45;14.10;;;9.17;;
3193;SDS011;1608;50.860;13.466;2022-09-21T00:28:13;14.30;;;9.70;;
3193;SDS011;1608;50.860;13.466;2022-09-21T00:30:40;14.70;;;9.57;;
3193;SDS011;1608;50.860;13.466;2022-09-21T00:33:06;13.93;;;9.67;;
3193;SDS011;1608;50.860;13.466;2022-09-21T00:35:33;11.60;;;8.93;;
3193;SDS011;1608;50.860;13.466;2022-09-21T00:38:00;13.90;;;9.80;;
3193;SDS011;1608;50.860;13.466;2022-09-21T00:40:27;12.00;;;8.63;;
3193;SDS011;1608;50.860;13.466;2022-09-21T00:43:09;13.30;;;9.40;;
3193;SDS011;1608;50.860;13.466;2022-09-21T00:45:39;16.33;;;9.60;;
3193;SDS011;1608;50.860;13.466;2022-09-21T00:48:06;14.57;;;7.90;;
3193;SDS011;1608;50.860;13.466;2022-09-21T00:50:33;17.80;;;9.67;;
3193;SDS011;1608;50.860;13.466;2022-09-21T00:53:03;14.67;;;7.90;;
3193;SDS011;1608;50.860;13.466;2022-09-21T00:55:31;14.23;;;9.10;;
3193;SDS011;1608;50.860;13.466;2022-09-21T00:58:02;16.20;;;8.33;;
3193;SDS011;1608;50.860;13.466;2022-09-21T01:00:33;17.10;;;9.37;;
3193;SDS011;1608;50.860;13.466;2022-09-21T01:03:01;16.77;;;8.33;;
3193;SDS011;1608;50.860;13.466;2022-09-21T01:05:28;14.90;;;9.80;;
3193;SDS011;1608;50.860;13.466;2022-09-21T01:07:55;12.13;;;9.00;;
3193;SDS011;1608;50.860;13.466;2022-09-21T01:10:24;22.63;;;8.40;;
3193;SDS011;1608;50.860;13.466;2022-09-21T01:12:59;15.50;;;9.60;;
3193;SDS011;1608;50.860;13.466;2022-09-21T01:15:38;16.83;;;10.77;;
3193;SDS011;1608;50.860;13.466;2022-09-21T01:18:14;15.63;;;9.80;;
3193;SDS011;1608;50.860;13.466;2022-09-21T01:20:58;16.47;;;10.03;;
3193;SDS011;1608;50.860;13.466;2022-09-21T01:23:45;17.70;;;9.37;;
3193;SDS011;1608;50.860;13.466;2022-09-21T01:26:31;17.77;;;9.53;;
3193;SDS011;1608;50.860;13.466;2022-09-21T01:29:10;23.30;;;10.23;;
3193;SDS011;1608;50.860;13.466;2022-09-21T01:31:43;18.20;;;11.93;;
3193;SDS011;1608;50.860;13.466;2022-09-21T01:34:23;21.83;;;12.53;;
3193;SDS011;1608;50.860;13.466;2022-09-21T01:36:55;20.60;;;12.13;;
3193;SDS011;1608;50.860;13.466;2022-09-21T01:39:24;16.93;;;10.47;;
3193;SDS011;1608;50.860;13.466;2022-09-21T01:41:52;16.17;;;11.20;;
3193;SDS011;1608;50.860;13.466;2022-09-21T01:44:22;17.50;;;10.97;;
3193;SDS011;1608;50.860;13.466;2022-09-21T01:46:52;15.80;;;10.20;;
3193;SDS011;1608;50.860;13.466;2022-09-21T01:49:22;16.60;;;10.67;;
3193;SDS011;1608;50.860;13.466;2022-09-21T01:51:54;15.03;;;9.50;;
3193;SDS011;1608;50.860;13.466;2022-09-21T01:54:24;16.97;;;10.20;;
3193;SDS011;1608;50.860;13.466;2022-09-21T01:56:58;16.80;;;9.70;;
3193;SDS011;1608;50.860;13.466;2022-09-21T01:59:33;18.40;;;11.00;;
3193;SDS011;1608;50.860;13.466;2022-09-21T02:02:10;13.30;;;9.53;;
3193;SDS011;1608;50.860;13.466;2022-09-21T02:04:40;13.53;;;9.50;;
3193;SDS011;1608;50.860;13.466;2022-09-21T02:07:07;22.50;;;10.33;;
3193;SDS011;1608;50.860;13.466;2022-09-21T02:09:34;15.70;;;10.90;;
3193;SDS011;1608;50.860;13.466;2022-09-21T02:12:02;17.93;;;10.47;;
3193;SDS011;1608;50.860;13.466;2022-09-21T02:14:29;16.70;;;10.03;;
3193;SDS011;1608;50.860;13.466;2022-09-21T02:17:02;22.77;;;10.70;;
3193;SDS011;1608;50.860;13.466;2022-09-21T02:19:35;16.43;;;9.70;;
3193;SDS011;1608;50.860;13.466;2022-09-21T02:22:08;14.30;;;9.30;;
3193;SDS011;1608;50.860;13.466;2022-09-21T02:24:41;20.47;;;11.10;;
3193;SDS011;1608;50.860;13.466;2022-09-21T02:27:13;13.70;;;9.67;;
3193;SDS011;1608;50.860;13.466;2022-09-21T02:29:50;19.00;;;12.00;;
3193;SDS011;1608;50.860;13.466;2022-09-21T02:32:24;14.47;;;9.53;;
3193;SDS011;1608;50.860;13.466;2022-09-21T02:34:58;21.50;;;11.63;;
3193;SDS011;1608;50.860;13.466;2022-09-21T02:37:31;22.17;;;12.10;;
3193;SDS011;1608;50.860;13.466;2022-09-21T02:40:04;25.37;;;11.50;;
3193;SDS011;1608;50.860;13.466;2022-09-21T02:42:39;20.53;;;11.20;;
3193;SDS011;1608;50.860;13.466;2022-09-21T02:45:12;24.07;;;12.60;;
3193;SDS011;1608;50.860;13.466;2022-09-21T02:47:45;30.20;;;12.43;;
3193;SDS011;1608;50.860;13.466;2022-09-21T02:50:16;24.97;;;13.33;;
3193;SDS011;1608;50.860;13.466;2022-09-21T02:52:48;27.10;;;11.37;;
3193;SDS011;1608;50.860;13.466;2022-09-21T02:55:16;33.60;;;13.00;;
3193;SDS011;1608;50.860;13.466;2022-09-21T02:57:43;21.00;;;12.60;;
3193;SDS011;1608;50.860;13.466;2022-09-21T03:00:13;26.67;;;13.10;;
3193;SDS011;1608;50.860;13.466;2022-09-21T03:02:43;25.47;;;12.03;;
3193;SDS011;1608;50.860;13.466;2022-09-21T03:05:11;29.17;;;15.57;;
3193;SDS011;1608;50.860;13.466;2022-09-21T03:07:39;26.13;;;12.93;;
3193;SDS011;1608;50.860;13.466;2022-09-21T03:10:06;24.97;;;12.40;;
3193;SDS011;1608;50.860;13.466;2022-09-21T03:12:34;20.93;;;12.03;;
3193;SDS011;1608;50.860;13.466;2022-09-21T03:15:01;19.70;;;11.10;;
3193;SDS011;1608;50.860;13.466;2022-09-21T03:17:29;23.73;;;12.13;;
3193;SDS011;1608;50.860;13.466;2022-09-21T03:19:56;21.43;;;12.73;;
3193;SDS011;1608;50.860;13.466;2022-09-21T03:22:23;18.00;;;11.70;;
3193;SDS011;1608;50.860;13.466;2022-09-21T03:24:50;17.23;;;11.60;;
3193;SDS011;1608;50.860;13.466;2022-09-21T03:27:21;19.90;;;12.30;;
3193;SDS011;1608;50.860;13.466;2022-09-21T03:29:48;24.17;;;13.33;;
3193;SDS011;1608;50.860;13.466;2022-09-21T03:32:15;24.40;;;12.97;;
3193;SDS011;1608;50.860;13.466;2022-09-21T03:34:43;25.17;;;13.27;;
3193;SDS011;1608;50.860;13.466;2022-09-21T03:37:10;20.10;;;11.57;;
3193;SDS011;1608;50.860;13.466;2022-09-21T03:39:36;21.07;;;11.87;;
3193;SDS011;1608;50.860;13.466;2022-09-21T03:42:03;18.60;;;11.70;;
3193;SDS011;1608;50.860;13.466;2022-09-21T03:44:30;21.27;;;12.53;;
3193;SDS011;1608;50.860;13.466;2022-09-21T03:46:57;19.17;;;12.50;;
3193;SDS011;1608;50.860;13.466;2022-09-21T03:49:23;16.60;;;11.17;;
3193;SDS011;1608;50.860;13.466;2022-09-21T03:51:52;24.67;;;12.70;;
3193;SDS011;1608;50.860;13.466;2022-09-21T03:54:20;20.30;;;12.07;;
3193;SDS011;1608;50.860;13.466;2022-09-21T03:56:46;21.57;;;13.83;;
3193;SDS011;1608;50.860;13.466;2022-09-21T03:59:13;19.70;;;11.83;;
3193;SDS011;1608;50.860;13.466;2022-09-21T04:01:40;24.30;;;14.80;;
3193;SDS011;1608;50.860;13.466;2022-09-21T04:04:06;22.03;;;12.90;;
3193;SDS011;1608;50.860;13.466;2022-09-21T04:06:34;24.13;;;13.10;;
3193;SDS011;1608;50.860;13.466;2022-09-21T04:09:02;18.30;;;12.30;;
3193;SDS011;1608;50.860;13.466;2022-09-21T04:11:29;16.90;;;12.60;;
3193;SDS011;1608;50.860;13.466;2022-09-21T04:13:56;35.77;;;13.70;;
3193;SDS011;1608;50.860;13.466;2022-09-21T04:16:23;18.57;;;12.63;;
3193;SDS011;1608;50.860;13.466;2022-09-21T04:18:50;22.43;;;13.00;;
3193;SDS011;1608;50.860;13.466;2022-09-21T04:21:17;19.67;;;12.37;;
3193;SDS011;1608;50.860;13.466;2022-09-21T04:23:45;24.33;;;14.10;;
3193;SDS011;1608;50.860;13.466;2022-09-21T04:26:21;24.30;;;14.27;;
3193;SDS011;1608;50.860;13.466;2022-09-21T04:28:49;24.77;;;12.00;;
3193;SDS011;1608;50.860;13.466;2022-09-21T04:31:17;22.37;;;13.10;;
3193;SDS011;1608;50.860;13.466;2022-09-21T04:33:46;21.60;;;13.07;;
3193;SDS011;1608;50.860;13.466;2022-09-21T04:36:13;19.47;;;14.10;;
3193;SDS011;1608;50.860;13.466;2022-09-21T04:38:40;23.57;;;14.13;;
3193;SDS011;1608;50.860;13.466;2022-09-21T04:41:06;17.50;;;14.20;;
3193;SDS011;1608;50.860;13.466;2022-09-21T04:43:34;24.47;;;13.97;;
3193;SDS011;1608;50.860;13.466;2022-09-21T04:46:05;26.60;;;16.60;;
3193;SDS011;1608;50.860;13.466;2022-09-21T04:48:32;24.13;;;15.17;;
3193;SDS011;1608;50.860;13.466;2022-09-21T04:50:59;25.17;;;14.17;;
3193;SDS011;1608;50.860;13.466;2022-09-21T04:53:26;21.03;;;15.00;;
3193;SDS011;1608;50.860;13.466;2022-09-21T04:55:52;20.43;;;13.43;;
3193;SDS011;1608;50.860;13.466;2022-09-21T04:58:19;22.87;;;15.87;;
3193;SDS011;1608;50.860;13.466;2022-09-21T05:00:49;25.53;;;14.53;;
3193;SDS011;1608;50.860;13.466;2022-09-21T05:03:16;19.40;;;13.77;;
3193;SDS011;1608;50.860;13.466;2022-09-21T05:05:45;18.00;;;13.53;;
3193;SDS011;1608;50.860;13.466;2022-09-21T05:08:12;25.43;;;14.27;;
3193;SDS011;1608;50.860;13.466;2022-09-21T05:10:39;21.87;;;15.03;;
3193;SDS011;1608;50.860;13.466;2022-09-21T05:13:04;25.47;;;17.07;;
3193;SDS011;1608;50.860;13.466;2022-09-21T05:15:31;29.23;;;17.90;;
3193;SDS011;1608;50.860;13.466;2022-09-21T05:20:30;27.33;;;16.97;;
3193;SDS011;1608;50.860;13.466;2022-09-21T05:22:58;24.03;;;17.80;;
3193;SDS011;1608;50.860;13.466;2022-09-21T05:25:26;23.00;;;16.70;;
3193;SDS011;1608;50.860;13.466;2022-09-21T05:27:52;23.63;;;16.60;;
3193;SDS011;1608;50.860;13.466;2022-09-21T05:30:20;25.73;;;16.57;;
3193;SDS011;1608;50.860;13.466;2022-09-21T05:32:47;24.03;;;16.70;;
3193;SDS011;1608;50.860;13.466;2022-09-21T05:35:24;26.57;;;16.90;;
3193;SDS011;1608;50.860;13.466;2022-09-21T05:38:00;23.87;;;15.70;;
3193;SDS011;1608;50.860;13.466;2022-09-21T05:40:32;27.27;;;17.93;;
3193;SDS011;1608;50.860;13.466;2022-09-21T05:42:59;25.27;;;15.60;;
3193;SDS011;1608;50.860;13.466;2022-09-21T05:45:26;22.40;;;16.03;;
3193;SDS011;1608;50.860;13.466;2022-09-21T05:47:55;31.33;;;19.70;;
3193;SDS011;1608;50.860;13.466;2022-09-21T05:50:48;32.03;;;18.00;;
3193;SDS011;1608;50.860;13.466;2022-09-21T05:53:29;27.70;;;17.17;;
3193;SDS011;1608;50.860;13.466;2022-09-21T05:56:14;27.43;;;17.40;;
3193;SDS011;1608;50.860;13.466;2022-09-21T05:58:52;27.00;;;16.57;;
3193;SDS011;1608;50.860;13.466;2022-09-21T06:01:28;26.90;;;16.37;;
3193;SDS011;1608;50.860;13.466;2022-09-21T06:04:06;29.30;;;18.97;;
3193;SDS011;1608;50.860;13.466;2022-09-21T06:06:35;28.50;;;18.40;;
3193;SDS011;1608;50.860;13.466;2022-09-21T06:09:03;33.13;;;18.47;;
3193;SDS011;1608;50.860;13.466;2022-09-21T06:11:30;29.43;;;18.30;;
3193;SDS011;1608;50.860;13.466;2022-09-21T06:13:57;27.40;;;18.83;;
3193;SDS011;1608;50.860;13.466;2022-09-21T06:16:25;32.00;;;18.13;;
3193;SDS011;1608;50.860;13.466;2022-09-21T06:18:52;26.43;;;16.80;;
3193;SDS011;1608;50.860;13.466;2022-09-21T06:21:19;32.43;;;17.63;;
3193;SDS011;1608;50.860;13.466;2022-09-21T06:23:45;23.63;;;15.43;;
3193;SDS011;1608;50.860;13.466;2022-09-21T06:26:13;22.63;;;15.93;;
3193;SDS011;1608;50.860;13.466;2022-09-21T06:28:41;21.10;;;15.73;;
3193;SDS011;1608;50.860;13.466;2022-09-21T06:31:08;24.50;;;16.40;;
3193;SDS011;1608;50.860;13.466;2022-09-21T06:33:35;28.40;;;16.57;;
3193;SDS011;1608;50.860;13.466;2022-09-21T06:36:02;27.17;;;17.73;;
3193;SDS011;1608;50.860;13.466;2022-09-21T06:38:29;22.47;;;16.03;;
3193;SDS011;1608;50.860;13.466;2022-09-21T06:40:59;28.43;;;17.17;;
3193;SDS011;1608;50.860;13.466;2022-09-21T06:43:28;21.90;;;16.80;;
3193;SDS011;1608;50.860;13.466;2022-09-21T06:45:55;23.53;;;16.87;;
3193;SDS011;1608;50.860;13.466;2022-09-21T06:48:24;27.47;;;17.70;;
3193;SDS011;1608;50.860;13.466;2022-09-21T06:50:55;29.33;;;16.57;;
3193;SDS011;1608;50.860;13.466;2022-09-21T06:53:23;25.37;;;14.60;;
3193;SDS011;1608;50.860;13.466;2022-09-21T06:55:50;21.53;;;15.90;;
3193;SDS011;1608;50.860;13.466;2022-09-21T06:58:17;27.33;;;15.37;;
3193;SDS011;1608;50.860;13.466;2022-09-21T07:00:45;20.50;;;14.53;;
3193;SDS011;1608;50.860;13.466;2022-09-21T07:03:12;23.00;;;15.97;;
3193;SDS011;1608;50.860;13.466;2022-09-21T07:05:39;23.97;;;14.43;;
3193;SDS011;1608;50.860;13.466;2022-09-21T07:08:09;25.40;;;16.77;;
3193;SDS011;1608;50.860;13.466;2022-09-21T07:10:36;20.60;;;14.47;;
3193;SDS011;1608;50.860;13.466;2022-09-21T07:13:03;23.70;;;15.57;;
3193;SDS011;1608;50.860;13.466;2022-09-21T07:15:31;24.87;;;15.43;;
3193;SDS011;1608;50.860;13.466;2022-09-21T07:17:59;19.90;;;13.00;;
3193;SDS011;1608;50.860;13.466;2022-09-21T07:20:26;23.57;;;15.50;;
3193;SDS011;1608;50.860;13.466;2022-09-21T07:22:52;21.53;;;13.80;;
3193;SDS011;1608;50.860;13.466;2022-09-21T07:25:19;21.07;;;14.67;;
3193;SDS011;1608;50.860;13.466;2022-09-21T07:27:46;21.73;;;14.70;;
3193;SDS011;1608;50.860;13.466;2022-09-21T07:30:12;20.60;;;15.27;;
3193;SDS011;1608;50.860;13.466;2022-09-21T07:32:39;20.37;;;14.70;;
3193;SDS011;1608;50.860;13.466;2022-09-21T07:35:07;17.10;;;12.83;;
3193;SDS011;1608;50.860;13.466;2022-09-21T07:37:34;15.73;;;12.73;;
3193;SDS011;1608;50.860;13.466;2022-09-21T07:40:01;19.90;;;14.50;;
3193;SDS011;1608;50.860;13.466;2022-09-21T07:42:29;15.30;;;12.40;;
3193;SDS011;1608;50.860;13.466;2022-09-21T07:44:56;18.67;;;13.73;;
3193;SDS011;1608;50.860;13.466;2022-09-21T07:47:24;15.40;;;12.07;;
3193;SDS011;1608;50.860;13.466;2022-09-21T07:49:51;19.93;;;13.17;;
3193;SDS011;1608;50.860;13.466;2022-09-21T07:52:20;20.97;;;14.20;;
3193;SDS011;1608;50.860;13.466;2022-09-21T07:54:47;18.93;;;13.17;;
3193;SDS011;1608;50.860;13.466;2022-09-21T07:57:14;14.67;;;11.17;;
3193;SDS011;1608;50.860;13.466;2022-09-21T07:59:58;18.43;;;13.20;;
3193;SDS011;1608;50.860;13.466;2022-09-21T08:02:25;19.67;;;14.10;;
3193;SDS011;1608;50.860;13.466;2022-09-21T08:04:51;23.40;;;12.73;;
3193;SDS011;1608;50.860;13.466;2022-09-21T08:07:18;21.33;;;13.43;;
3193;SDS011;1608;50.860;13.466;2022-09-21T08:09:47;15.67;;;11.77;;
3193;SDS011;1608;50.860;13.466;2022-09-21T08:12:15;14.43;;;11.30;;
3193;SDS011;1608;50.860;13.466;2022-09-21T08:14:42;13.93;;;10.63;;
3193;SDS011;1608;50.860;13.466;2022-09-21T08:17:09;13.03;;;10.47;;
3193;SDS011;1608;50.860;13.466;2022-09-21T08:19:36;13.53;;;10.37;;
3193;SDS011;1608;50.860;13.466;2022-09-21T08:22:03;19.07;;;12.27;;
3193;SDS011;1608;50.860;13.466;2022-09-21T08:24:31;16.17;;;11.80;;
3193;SDS011;1608;50.860;13.466;2022-09-21T08:26:59;16.03;;;10.20;;
3193;SDS011;1608;50.860;13.466;2022-09-21T08:29:26;13.47;;;10.77;;
3193;SDS011;1608;50.860;13.466;2022-09-21T08:31:52;13.60;;;10.97;;
3193;SDS011;1608;50.860;13.466;2022-09-21T08:34:19;20.73;;;11.70;;
3193;SDS011;1608;50.860;13.466;2022-09-21T08:36:47;19.90;;;13.10;;
3193;SDS011;1608;50.860;13.466;2022-09-21T08:39:13;17.33;;;13.27;;
3193;SDS011;1608;50.860;13.466;2022-09-21T08:41:51;16.00;;;12.83;;
3193;SDS011;1608;50.860;13.466;2022-09-21T08:44:27;16.37;;;12.60;;
3193;SDS011;1608;50.860;13.466;2022-09-21T08:47:02;14.70;;;10.40;;
3193;SDS011;1608;50.860;13.466;2022-09-21T08:49:31;12.10;;;9.27;;
3193;SDS011;1608;50.860;13.466;2022-09-21T08:52:01;13.43;;;10.40;;
3193;SDS011;1608;50.860;13.466;2022-09-21T08:54:33;13.67;;;8.80;;
3193;SDS011;1608;50.860;13.466;2022-09-21T08:57:06;12.30;;;11.00;;
3193;SDS011;1608;50.860;13.466;2022-09-21T08:59:36;11.73;;;9.83;;
3193;SDS011;1608;50.860;13.466;2022-09-21T09:02:09;12.30;;;9.50;;
3193;SDS011;1608;50.860;13.466;2022-09-21T09:05:00;10.50;;;8.83;;
3193;SDS011;1608;50.860;13.466;2022-09-21T09:07:49;10.60;;;9.00;;
3193;SDS011;1608;50.860;13.466;2022-09-21T09:10:37;18.13;;;10.17;;
3193;SDS011;1608;50.860;13.466;2022-09-21T09:16:01;12.40;;;9.90;;
3193;SDS011;1608;50.860;13.466;2022-09-21T09:18:36;9.23;;;7.87;;
3193;SDS011;1608;50.860;13.466;2022-09-21T09:21:08;11.47;;;8.10;;
3193;SDS011;1608;50.860;13.466;2022-09-21T09:23:41;8.87;;;7.50;;
3193;SDS011;1608;50.860;13.466;2022-09-21T09:26:13;8.20;;;6.97;;
3193;SDS011;1608;50.860;13.466;2022-09-21T09:28:45;10.53;;;5.80;;
3193;SDS011;1608;50.860;13.466;2022-09-21T09:31:17;9.03;;;8.03;;
3193;SDS011;1608;50.860;13.466;2022-09-21T09:33:49;8.20;;;7.10;;
3193;SDS011;1608;50.860;13.466;2022-09-21T09:36:20;9.70;;;6.13;;
3193;SDS011;1608;50.860;13.466;2022-09-21T09:38:54;7.30;;;6.60;;
3193;SDS011;1608;50.860;13.466;2022-09-21T09:41:27;7.70;;;7.00;;
3193;SDS011;1608;50.860;13.466;2022-09-21T09:44:18;7.47;;;6.60;;
3193;SDS011;1608;50.860;13.466;2022-09-21T09:46:55;9.20;;;6.37;;
3193;SDS011;1608;50.860;13.466;2022-09-21T09:49:33;7.33;;;6.50;;
3193;SDS011;1608;50.860;13.466;2022-09-21T09:52:06;8.90;;;6.20;;
3193;SDS011;1608;50.860;13.466;2022-09-21T09:54:37;6.40;;;5.63;;
3193;SDS011;1608;50.860;13.466;2022-09-21T09:57:04;7.10;;;5.70;;
3193;SDS011;1608;50.860;13.466;2022-09-21T09:59:34;10.70;;;7.13;;
3193;SDS011;1608;50.860;13.466;2022-09-21T10:02:04;7.10;;;5.90;;
3193;SDS011;1608;50.860;13.466;2022-09-21T10:04:32;6.30;;;5.10;;
3193;SDS011;1608;50.860;13.466;2022-09-21T10:06:59;4.13;;;3.70;;
3193;SDS011;1608;50.860;13.466;2022-09-21T10:09:27;7.27;;;4.87;;
3193;SDS011;1608;50.860;13.466;2022-09-21T10:11:57;3.77;;;3.27;;
3193;SDS011;1608;50.860;13.466;2022-09-21T10:14:26;3.00;;;2.80;;
3193;SDS011;1608;50.860;13.466;2022-09-21T10:17:00;6.20;;;3.37;;
3193;SDS011;1608;50.860;13.466;2022-09-21T10:19:31;6.97;;;5.27;;
3193;SDS011;1608;50.860;13.466;2022-09-21T10:21:58;4.50;;;3.70;;
3193;SDS011;1608;50.860;13.466;2022-09-21T10:24:27;5.03;;;4.03;;
3193;SDS011;1608;50.860;13.466;2022-09-21T10:27:01;6.07;;;3.37;;
3193;SDS011;1608;50.860;13.466;2022-09-21T10:29:31;6.10;;;5.33;;
3193;SDS011;1608;50.860;13.466;2022-09-21T10:32:16;6.30;;;4.50;;
3193;SDS011;1608;50.860;13.466;2022-09-21T10:34:59;3.60;;;3.17;;
3193;SDS011;1608;50.860;13.466;2022-09-21T10:37:28;6.27;;;3.53;;
3193;SDS011;1608;50.860;13.466;2022-09-21T10:39:58;4.80;;;3.07;;
3193;SDS011;1608;50.860;13.466;2022-09-21T10:42:24;3.43;;;2.83;;
3193;SDS011;1608;50.860;13.466;2022-09-21T10:45:03;3.20;;;2.13;;
3193;SDS011;1608;50.860;13.466;2022-09-21T10:47:40;3.23;;;2.97;;
3193;SDS011;1608;50.860;13.466;2022-09-21T10:50:19;3.90;;;3.10;;
3193;SDS011;1608;50.860;13.466;2022-09-21T10:52:49;4.20;;;3.57;;
3193;SDS011;1608;50.860;13.466;2022-09-21T10:55:21;2.73;;;2.00;;
3193;SDS011;1608;50.860;13.466;2022-09-21T10:57:49;4.10;;;2.53;;
3193;SDS011;1608;50.860;13.466;2022-09-21T11:00:30;3.77;;;3.20;;
3193;SDS011;1608;50.860;13.466;2022-09-21T11:03:05;4.23;;;3.83;;
3193;SDS011;1608;50.860;13.466;2022-09-21T11:06:10;3.00;;;2.77;;
3193;SDS011;1608;50.860;13.466;2022-09-21T11:08:43;4.67;;;2.73;;
3193;SDS011;1608;50.860;13.466;2022-09-21T11:11:18;2.20;;;1.70;;
3193;SDS011;1608;50.860;13.466;2022-09-21T11:14:08;14.53;;;2.37;;
3193;SDS011;1608;50.860;13.466;2022-09-21T11:16:40;3.30;;;3.00;;
3193;SDS011;1608;50.860;13.466;2022-09-21T11:19:16;4.17;;;2.33;;
3193;SDS011;1608;50.860;13.466;2022-09-21T11:21:51;4.80;;;2.40;;
3193;SDS011;1608;50.860;13.466;2022-09-21T11:24:22;3.93;;;2.33;;
3193;SDS011;1608;50.860;13.466;2022-09-21T11:26:58;3.07;;;2.07;;
3193;SDS011;1608;50.860;13.466;2022-09-21T11:29:30;2.33;;;2.13;;
3193;SDS011;1608;50.860;13.466;2022-09-21T11:32:19;2.60;;;2.40;;
3193;SDS011;1608;50.860;13.466;2022-09-21T11:35:05;3.57;;;2.97;;
3193;SDS011;1608;50.860;13.466;2022-09-21T11:37:49;8.07;;;3.07;;
3193;SDS011;1608;50.860;13.466;2022-09-21T11:40:37;5.10;;;3.50;;
3193;SDS011;1608;50.860;13.466;2022-09-21T11:43:21;4.70;;;3.40;;
3193;SDS011;1608;50.860;13.466;2022-09-21T11:46:02;7.80;;;2.97;;
3193;SDS011;1608;50.860;13.466;2022-09-21T11:48:43;5.40;;;3.33;;
3193;SDS011;1608;50.860;13.466;2022-09-21T11:51:24;2.93;;;2.50;;
3193;SDS011;1608;50.860;13.466;2022-09-21T11:56:56;6.60;;;2.87;;
3193;SDS011;1608;50.860;13.466;2022-09-21T11:59:37;3.43;;;2.97;;
3193;SDS011;1608;50.860;13.466;2022-09-21T12:02:28;5.20;;;2.40;;
3193;SDS011;1608;50.860;13.466;2022-09-21T12:05:11;4.40;;;2.50;;
3193;SDS011;1608;50.860;13.466;2022-09-21T12:07:50;5.57;;;2.33;;
3193;SDS011;1608;50.860;13.466;2022-09-21T12:10:36;3.17;;;2.10;;
3193;SDS011;1608;50.860;13.466;2022-09-21T12:13:05;2.57;;;1.60;;
3193;SDS011;1608;50.860;13.466;2022-09-21T12:15:41;2.23;;;2.00;;
3193;SDS011;1608;50.860;13.466;2022-09-21T12:18:16;4.30;;;1.37;;
3193;SDS011;1608;50.860;13.466;2022-09-21T12:20:50;3.70;;;1.80;;
3193;SDS011;1608;50.860;13.466;2022-09-21T12:23:26;4.80;;;1.87;;
3193;SDS011;1608;50.860;13.466;2022-09-21T12:26:00;2.23;;;1.70;;
3193;SDS011;1608;50.860;13.466;2022-09-21T12:28:29;2.80;;;1.80;;
3193;SDS011;1608;50.860;13.466;2022-09-21T12:31:00;5.47;;;2.27;;
3193;SDS011;1608;50.860;13.466;2022-09-21T12:33:32;2.87;;;2.10;;
3193;SDS011;1608;50.860;13.466;2022-09-21T12:36:04;3.40;;;2.53;;
3193;SDS011;1608;50.860;13.466;2022-09-21T12:38:38;2.33;;;2.10;;
3193;SDS011;1608;50.860;13.466;2022-09-21T12:41:09;3.30;;;2.00;;
3193;SDS011;1608;50.860;13.466;2022-09-21T12:43:42;2.70;;;2.40;;
3193;SDS011;1608;50.860;13.466;2022-09-21T12:46:13;3.37;;;2.40;;
3193;SDS011;1608;50.860;13.466;2022-09-21T12:48:43;7.17;;;2.67;;
3193;SDS011;1608;50.860;13.466;2022-09-21T12:51:12;2.60;;;2.40;;
3193;SDS011;1608;50.860;13.466;2022-09-21T12:53:46;3.00;;;2.40;;
3193;SDS011;1608;50.860;13.466;2022-09-21T12:56:17;4.40;;;2.67;;
3193;SDS011;1608;50.860;13.466;2022-09-21T12:58:55;2.00;;;1.83;;
3193;SDS011;1608;50.860;13.466;2022-09-21T13:01:30;3.20;;;2.60;;
3193;SDS011;1608;50.860;13.466;2022-09-21T13:04:04;2.60;;;2.37;;
3193;SDS011;1608;50.860;13.466;2022-09-21T13:06:46;2.60;;;2.10;;
3193;SDS011;1608;50.860;13.466;2022-09-21T13:09:35;4.87;;;2.67;;
3193;SDS011;1608;50.860;13.466;2022-09-21T13:12:06;3.13;;;2.07;;
3193;SDS011;1608;50.860;13.466;2022-09-21T13:14:40;4.70;;;2.33;;
3193;SDS011;1608;50.860;13.466;2022-09-21T13:17:16;2.50;;;2.20;;
3193;SDS011;1608;50.860;13.466;2022-09-21T13:19:54;2.80;;;2.03;;
3193;SDS011;1608;50.860;13.466;2022-09-21T13:22:24;2.97;;;2.10;;
3193;SDS011;1608;50.860;13.466;2022-09-21T13:24:58;2.90;;;2.07;;
3193;SDS011;1608;50.860;13.466;2022-09-21T13:30:28;2.40;;;2.20;;
3193;SDS011;1608;50.860;13.466;2022-09-21T13:32:58;4.23;;;1.80;;
3193;SDS011;1608;50.860;13.466;2022-09-21T13:38:26;2.20;;;2.00;;
3193;SDS011;1608;50.860;13.466;2022-09-21T13:40:57;1.70;;;1.60;;
3193;SDS011;1608;50.860;13.466;2022-09-21T13:49:21;3.67;;;2.00;;
3193;SDS011;1608;50.860;13.466;2022-09-21T13:51:52;2.33;;;1.80;;
3193;SDS011;1608;50.860;13.466;2022-09-21T13:54:22;7.93;;;2.17;;
3193;SDS011;1608;50.860;13.466;2022-09-21T13:57:14;2.67;;;2.47;;
3193;SDS011;1608;50.860;13.466;2022-09-21T13:59:43;4.80;;;2.30;;
3193;SDS011;1608;50.860;13.466;2022-09-21T14:02:21;9.43;;;2.17;;
3193;SDS011;1608;50.860;13.466;2022-09-21T14:04:55;3.17;;;2.53;;
3193;SDS011;1608;50.860;13.466;2022-09-21T14:07:27;2.60;;;2.00;;
3193;SDS011;1608;50.860;13.466;2022-09-21T14:09:56;2.20;;;1.90;;
3193;SDS011;1608;50.860;13.466;2022-09-21T14:12:30;3.80;;;1.70;;
3193;SDS011;1608;50.860;13.466;2022-09-21T14:15:10;2.60;;;2.10;;
3193;SDS011;1608;50.860;13.466;2022-09-21T14:18:06;2.90;;;2.60;;
3193;SDS011;1608;50.860;13.466;2022-09-21T14:23:34;6.17;;;2.73;;
3193;SDS011;1608;50.860;13.466;2022-09-21T14:26:01;1.60;;;1.50;;
3193;SDS011;1608;50.860;13.466;2022-09-21T14:28:47;2.60;;;2.13;;
3193;SDS011;1608;50.860;13.466;2022-09-21T14:31:17;3.70;;;2.07;;
3193;SDS011;1608;50.860;13.466;2022-09-21T14:33:47;2.27;;;1.90;;
3193;SDS011;1608;50.860;13.466;2022-09-21T14:36:18;2.43;;;1.50;;
3193;SDS011;1608;50.860;13.466;2022-09-21T14:38:49;2.17;;;1.40;;
3193;SDS011;1608;50.860;13.466;2022-09-21T14:41:19;3.27;;;1.50;;
3193;SDS011;1608;50.860;13.466;2022-09-21T14:43:50;3.93;;;1.97;;
3193;SDS011;1608;50.860;13.466;2022-09-21T14:46:37;2.40;;;1.80;;
3193;SDS011;1608;50.860;13.466;2022-09-21T14:49:44;3.90;;;1.97;;
3193;SDS011;1608;50.860;13.466;2022-09-21T14:52:26;2.07;;;1.50;;
3193;SDS011;1608;50.860;13.466;2022-09-21T14:55:01;5.97;;;2.60;;
3193;SDS011;1608;50.860;13.466;2022-09-21T14:57:44;3.90;;;1.87;;
3193;SDS011;1608;50.860;13.466;2022-09-21T15:00:35;3.50;;;1.87;;
3193;SDS011;1608;50.860;13.466;2022-09-21T15:03:08;6.50;;;2.17;;
3193;SDS011;1608;50.860;13.466;2022-09-21T15:06:05;3.80;;;2.53;;
3193;SDS011;1608;50.860;13.466;2022-09-21T15:08:55;14.87;;;11.53;;
3193;SDS011;1608;50.860;13.466;2022-09-21T15:11:58;2.90;;;2.30;;
3193;SDS011;1608;50.860;13.466;2022-09-21T15:14:31;3.00;;;2.60;;
3193;SDS011;1608;50.860;13.466;2022-09-21T15:17:16;3.33;;;2.60;;
3193;SDS011;1608;50.860;13.466;2022-09-21T15:19:49;2.40;;;2.10;;
3193;SDS011;1608;50.860;13.466;2022-09-21T15:22:16;3.10;;;2.50;;
3193;SDS011;1608;50.860;13.466;2022-09-21T15:24:48;2.03;;;1.80;;
3193;SDS011;1608;50.860;13.466;2022-09-21T15:27:16;2.20;;;1.73;;
3193;SDS011;1608;50.860;13.466;2022-09-21T15:29:45;2.50;;;1.30;;
3193;SDS011;1608;50.860;13.466;2022-09-21T15:32:18;2.40;;;1.47;;
3193;SDS011;1608;50.860;13.466;2022-09-21T15:34:56;1.93;;;1.83;;
3193;SDS011;1608;50.860;13.466;2022-09-21T15:37:25;2.70;;;2.37;;